KPDC

Prairie Du Chien Municipal Airport

Prairie Du Chien, Wisconsin, USA
METAR KPDC 190715Z AUTO 00000KT 10SM CLR M02/M07 A2986 RMK AO2 T10161073
Observed Flight Rules
Jan-19 @ 07:15 UTC (16 minutes ago) Visual Flight Rules
Wind Visibility Clouds
Calm 10 miles
  • Clear skies
Temperatures Readings
Current -2°C / 28°F
Dewpoint -7°C / 19°F
Humidity 69%
Altimeter 29.86" Hg
Pressure 1011 hPa
Elevation 201
METAR KPDC 190715Z AUTO 00000KT 10SM CLR M02/M07 A2986 RMK AO2 T10161073
Observed Flight Rules
Jan-19 @ 07:15 UTC
(16 minutes ago)
VFR
Wind Visibility
Calm 10 miles
Clouds
  • Clear skies
Temperature Dewpoint
-2°C / 28°F -7°C / 19°F
Humidity Altimeter Pressure
69% 29.86" Hg 1011 hPa